createdAt,value
2022-11-06T00:00:43.709Z,101078.53
2022-11-06T00:03:14.004Z,101080.28
2022-11-06T00:05:57.200Z,101075.00
2022-11-06T00:08:32.288Z,101067.97
2022-11-06T00:11:02.121Z,101071.44
2022-11-06T00:13:34.701Z,101073.25
2022-11-06T00:16:06.214Z,101076.69
2022-11-06T00:18:36.827Z,101066.16
2022-11-06T00:21:10.680Z,101086.34
2022-11-06T00:23:40.447Z,101078.38
2022-11-06T00:26:11.203Z,101080.09
2022-11-06T00:28:44.558Z,101072.13
2022-11-06T00:31:16.899Z,101078.16
2022-11-06T00:33:47.047Z,101082.47
2022-11-06T00:36:18.805Z,101087.66
2022-11-06T00:38:49.119Z,101085.00
2022-11-06T00:41:19.681Z,101072.63
2022-11-06T00:43:55.584Z,101070.00
2022-11-06T00:46:25.812Z,101073.44
2022-11-06T00:48:56.362Z,101077.81
2022-11-06T00:51:31.297Z,101078.63
2022-11-06T00:54:08.937Z,101067.22
2022-11-06T00:56:38.835Z,101075.00
2022-11-06T00:59:14.856Z,101072.38
2022-11-06T01:01:47.069Z,101061.78
2022-11-06T01:04:18.772Z,101063.53
2022-11-06T01:06:50.781Z,101056.47
2022-11-06T01:09:23.031Z,101067.00
2022-11-06T01:14:47.349Z,101055.56
2022-11-06T01:17:17.331Z,101051.16
2022-11-06T01:19:47.103Z,101059.09
2022-11-06T01:22:16.848Z,101048.50
2022-11-06T01:24:46.743Z,101046.75
2022-11-06T01:27:31.833Z,101045.81
2022-11-06T01:30:04.387Z,101040.56
2022-11-06T01:32:34.135Z,101037.03
2022-11-06T01:35:03.843Z,101038.00
2022-11-06T01:37:33.568Z,101042.38
2022-11-06T01:40:03.646Z,101034.56
2022-11-06T01:42:33.434Z,101049.50
2022-11-06T01:45:32.379Z,101042.56
2022-11-06T01:48:03.125Z,101029.31
2022-11-06T01:50:32.976Z,101031.06
2022-11-06T01:53:03.733Z,101031.84
2022-11-06T01:55:46.140Z,101032.78
2022-11-06T01:58:23.035Z,101017.78
2022-11-06T02:00:56.672Z,101023.09
2022-11-06T02:03:29.309Z,101008.97
2022-11-06T02:06:00.850Z,101018.69
2022-11-06T02:08:31.543Z,101009.03
2022-11-06T02:11:01.550Z,101008.19
2022-11-06T02:13:44.401Z,101016.16
2022-11-06T02:16:25.661Z,101016.16
2022-11-06T02:19:20.088Z,101023.19
2022-11-06T02:22:16.491Z,101021.50
2022-11-06T02:25:08.143Z,101021.50
2022-11-06T02:27:40.948Z,101020.63
2022-11-06T02:30:12.544Z,101023.31
2022-11-06T02:32:46.038Z,101032.13
2022-11-06T02:35:25.454Z,101026.88
2022-11-06T02:38:01.063Z,101019.94
2022-11-06T02:40:35.919Z,101021.75
2022-11-06T02:43:10.849Z,101026.09
2022-11-06T02:45:47.052Z,101022.63
2022-11-06T02:48:19.948Z,101014.72
2022-11-06T02:50:53.715Z,101010.34
2022-11-06T02:53:27.883Z,101014.75
2022-11-06T02:56:02.569Z,101004.22
2022-11-06T02:58:39.450Z,101012.19
2022-11-06T03:01:15.763Z,100999.91
2022-11-06T03:03:52.417Z,100998.16
2022-11-06T03:06:25.932Z,100996.41
2022-11-06T03:08:59.470Z,100994.66
2022-11-06T03:11:32.687Z,100995.63
2022-11-06T03:14:12.669Z,100997.44
2022-11-06T03:16:54.222Z,100997.53
2022-11-06T03:19:30.440Z,100998.41
2022-11-06T03:22:05.740Z,101001.09
2022-11-06T03:24:41.263Z,100998.41
2022-11-06T03:27:18.430Z,101002.00
2022-11-06T03:29:53.696Z,101002.88
2022-11-06T03:32:29.659Z,100994.13
2022-11-06T03:35:07.091Z,100996.75
2022-11-06T03:37:42.922Z,100995.03
2022-11-06T03:40:17.032Z,100984.53
2022-11-06T03:42:49.275Z,100992.44
2022-11-06T03:45:25.587Z,100991.63
2022-11-06T03:48:01.497Z,100980.16
2022-11-06T03:50:35.860Z,100977.53
2022-11-06T03:53:09.880Z,100991.66
2022-11-06T03:55:44.379Z,100975.81
2022-11-06T03:58:17.962Z,100973.19
2022-11-06T04:00:52.484Z,100978.50
2022-11-06T04:03:27.979Z,100976.75
2022-11-06T04:06:01.539Z,100973.28
2022-11-06T04:08:45.591Z,100980.28
2022-11-06T04:11:31.062Z,100980.31
2022-11-06T04:14:05.567Z,100982.00
2022-11-06T04:16:41.778Z,100984.66
2022-11-06T04:19:18.624Z,100983.81
2022-11-06T04:22:04.199Z,100977.59
2022-11-06T04:24:57.296Z,100983.75
2022-11-06T04:27:36.731Z,100973.28
2022-11-06T04:30:10.705Z,100972.34
2022-11-06T04:33:00.362Z,100972.41
2022-11-06T04:35:39.922Z,100968.81
2022-11-06T04:38:13.965Z,100974.97
2022-11-06T04:40:53.458Z,100977.66
2022-11-06T04:43:31.188Z,100974.09
2022-11-06T04:46:05.707Z,100972.34
2022-11-06T04:48:40.125Z,100974.97
2022-11-06T04:51:13.455Z,100970.59
2022-11-06T04:53:45.008Z,100977.66
2022-11-06T04:56:21.270Z,100972.41
2022-11-06T04:58:51.207Z,100975.03
2022-11-06T05:01:21.127Z,100967.16
2022-11-06T05:03:54.009Z,100959.25
2022-11-06T05:06:29.627Z,100958.38
2022-11-06T05:09:01.429Z,100961.06
2022-11-06T05:11:31.333Z,100959.34
2022-11-06T05:14:01.385Z,100958.53
2022-11-06T05:16:31.352Z,100956.72
2022-11-06T05:19:04.101Z,100954.09
2022-11-06T05:21:46.366Z,100940.94
2022-11-06T05:24:16.160Z,100939.22
2022-11-06T05:26:46.011Z,100935.66
2022-11-06T05:29:16.978Z,100934.84
2022-11-06T05:31:46.820Z,100933.09
2022-11-06T05:34:21.735Z,100933.97
2022-11-06T05:36:51.554Z,100931.34
2022-11-06T05:39:21.345Z,100920.81
2022-11-06T05:41:51.271Z,100932.22
2022-11-06T05:44:23.222Z,100931.41
2022-11-06T05:46:55.813Z,100925.19
2022-11-06T05:49:35.940Z,100919.06
2022-11-06T05:52:09.114Z,100915.53
2022-11-06T05:54:39.050Z,100922.63
2022-11-06T05:57:08.993Z,100941.97
2022-11-06T05:59:38.784Z,100929.66
2022-11-06T06:02:08.715Z,100933.19
2022-11-06T06:04:41.196Z,100929.75
2022-11-06T06:07:11.171Z,100935.88
2022-11-06T06:09:41.005Z,100925.28
2022-11-06T06:12:13.947Z,100928.72
2022-11-06T06:14:49.250Z,100926.06
2022-11-06T06:17:20.167Z,100926.88
2022-11-06T06:19:52.748Z,100917.22
2022-11-06T06:22:22.816Z,100922.50
2022-11-06T06:24:52.766Z,100918.94
2022-11-06T06:27:27.790Z,100925.97
2022-11-06T06:29:57.665Z,100925.91
2022-11-06T06:32:27.524Z,100931.16
2022-11-06T06:34:59.824Z,100926.72
2022-11-06T06:37:29.543Z,100932.84
2022-11-06T06:39:59.284Z,100930.16
2022-11-06T06:42:31.532Z,100936.34
2022-11-06T06:45:01.400Z,100929.25
2022-11-06T06:47:31.115Z,100942.41
2022-11-06T06:50:03.479Z,100928.44
2022-11-06T06:52:33.236Z,100935.41
2022-11-06T06:55:10.751Z,100933.63
2022-11-06T06:57:40.545Z,100942.50
2022-11-06T07:00:11.942Z,100948.63
2022-11-06T07:02:41.649Z,100953.06
2022-11-06T07:05:14.169Z,100951.34
2022-11-06T07:07:43.982Z,100945.16
2022-11-06T07:10:13.853Z,100946.06
2022-11-06T07:12:43.642Z,100944.25
2022-11-06T07:15:13.960Z,100942.50
2022-11-06T07:17:43.966Z,100947.78
2022-11-06T07:20:17.334Z,100944.31
2022-11-06T07:22:47.162Z,100942.50
2022-11-06T07:25:16.956Z,100940.75
2022-11-06T07:27:46.904Z,100949.53
2022-11-06T07:30:17.007Z,100948.63
2022-11-06T07:32:46.763Z,100945.94
2022-11-06T07:35:19.227Z,100950.38
2022-11-06T07:37:48.987Z,100950.38
2022-11-06T07:43:11.028Z,100930.28
2022-11-06T07:45:44.852Z,100933.78
2022-11-06T07:48:14.900Z,100940.84
2022-11-06T07:50:47.645Z,100940.00
2022-11-06T07:53:17.382Z,100929.47
2022-11-06T07:55:51.423Z,100932.09
2022-11-06T07:58:21.616Z,100934.75
2022-11-06T08:00:51.772Z,100929.47
2022-11-06T08:03:22.460Z,100934.75
2022-11-06T08:05:55.131Z,100931.25
2022-11-06T08:08:24.915Z,100929.47
2022-11-06T08:10:55.195Z,100931.19
2022-11-06T08:13:26.165Z,100932.94
2022-11-06T08:15:55.914Z,100929.47
2022-11-06T08:18:25.624Z,100925.09
2022-11-06T08:20:58.150Z,100923.34
2022-11-06T08:23:28.118Z,100919.03
2022-11-06T08:25:58.734Z,100918.19
2022-11-06T08:28:29.543Z,100914.72
2022-11-06T08:30:59.280Z,100912.97
2022-11-06T08:33:28.971Z,100920.00
2022-11-06T08:36:04.232Z,100907.72
2022-11-06T08:38:34.237Z,100910.38
2022-11-06T08:41:08.422Z,100909.56
2022-11-06T08:43:39.001Z,100912.19
2022-11-06T08:46:10.203Z,100913.13
2022-11-06T08:48:39.945Z,100908.69
2022-11-06T08:51:12.442Z,100912.25
2022-11-06T08:53:42.284Z,100914.03
2022-11-06T08:56:12.057Z,100900.03
2022-11-06T08:58:41.797Z,100898.34
2022-11-06T09:01:11.869Z,100896.66
2022-11-06T09:03:41.622Z,100901.97
2022-11-06T09:06:14.019Z,100902.91
2022-11-06T09:08:43.780Z,100886.22
2022-11-06T09:11:13.609Z,100888.84
2022-11-06T09:13:43.568Z,100883.63
2022-11-06T09:16:16.026Z,100887.25
2022-11-06T09:18:46.467Z,100875.06
2022-11-06T09:21:18.824Z,100868.16
2022-11-06T09:23:48.948Z,100861.16
2022-11-06T09:26:18.827Z,100855.06
2022-11-06T09:28:49.922Z,100853.31
2022-11-06T09:31:19.678Z,100848.94
2022-11-06T09:33:49.456Z,100855.09
2022-11-06T09:36:21.832Z,100838.47
2022-11-06T09:38:51.770Z,100842.03
2022-11-06T09:41:27.811Z,100842.94
2022-11-06T09:44:13.962Z,100843.00
2022-11-06T09:46:47.598Z,100836.88
2022-11-06T09:49:23.966Z,100837.00
2022-11-06T09:52:02.788Z,100825.59
2022-11-06T09:54:38.112Z,100827.34
2022-11-06T09:57:16.406Z,100831.81
2022-11-06T09:59:47.467Z,100826.53
2022-11-06T10:02:29.421Z,100823.09
2022-11-06T10:05:07.022Z,100820.47
2022-11-06T10:07:42.357Z,100822.22
2022-11-06T10:10:19.179Z,100814.31
2022-11-06T10:13:05.438Z,100816.06
2022-11-06T10:15:39.463Z,100804.59
2022-11-06T10:18:18.847Z,100808.16
2022-11-06T10:20:55.187Z,100806.41
2022-11-06T10:23:39.192Z,100808.16
2022-11-06T10:26:16.099Z,100811.72
2022-11-06T10:29:01.379Z,100810.88
2022-11-06T10:31:40.495Z,100808.16
2022-11-06T10:34:14.374Z,100802.00
2022-11-06T10:36:50.202Z,100788.91
2022-11-06T10:39:26.470Z,100781.03
2022-11-06T10:42:03.900Z,100780.16
2022-11-06T10:44:40.139Z,100790.69
2022-11-06T10:47:18.697Z,100789.81
2022-11-06T10:49:51.949Z,100775.75
2022-11-06T10:52:47.942Z,100779.41
2022-11-06T10:55:55.702Z,100773.31
2022-11-06T10:58:33.020Z,100759.34
2022-11-06T11:01:05.367Z,100749.75
2022-11-06T11:03:38.320Z,100750.75
2022-11-06T11:06:09.455Z,100749.09
2022-11-06T11:08:43.169Z,100746.56
2022-11-06T11:11:23.266Z,100758.91
2022-11-06T11:14:38.219Z,100747.56
2022-11-06T11:17:11.975Z,100739.66
2022-11-06T11:19:44.290Z,100749.41
2022-11-06T11:22:22.280Z,100743.38
2022-11-06T11:25:04.078Z,100740.81
2022-11-06T11:27:37.984Z,100739.91
2022-11-06T11:30:23.558Z,100732.97
2022-11-06T11:32:54.128Z,100732.97
2022-11-06T11:35:28.226Z,100728.63
2022-11-06T11:38:10.033Z,100733.91
2022-11-06T11:40:41.100Z,100718.00
2022-11-06T11:43:28.603Z,100704.88
2022-11-06T11:46:20.945Z,100711.97
2022-11-06T11:48:53.133Z,100694.31
2022-11-06T11:51:30.516Z,100697.03
2022-11-06T11:54:05.544Z,100684.78
2022-11-06T11:57:02.961Z,100673.41
2022-11-06T11:59:30.295Z,100675.19
2022-11-06T12:02:06.912Z,100670.84
2022-11-06T12:04:41.811Z,100665.59
2022-11-06T12:07:25.942Z,100655.94
2022-11-06T12:09:55.998Z,100655.06
2022-11-06T12:12:29.304Z,100648.09
2022-11-06T12:15:20.892Z,100634.09
2022-11-06T12:18:14.687Z,100614.78
2022-11-06T12:20:52.535Z,100617.50
2022-11-06T12:23:29.148Z,100607.00
2022-11-06T12:26:04.547Z,100611.50
2022-11-06T12:28:38.175Z,100608.88
2022-11-06T12:31:15.801Z,100604.50
2022-11-06T12:34:09.116Z,100600.19
2022-11-06T12:36:47.027Z,100598.44
2022-11-06T12:39:23.126Z,100588.81
2022-11-06T12:41:55.607Z,100587.97
2022-11-06T12:44:25.662Z,100567.75
2022-11-06T12:47:03.050Z,100570.44
2022-11-06T12:50:11.271Z,100567.91
2022-11-06T12:53:10.992Z,100574.09
2022-11-06T12:55:49.730Z,100569.75
2022-11-06T12:58:43.107Z,100575.91
2022-11-06T13:01:23.696Z,100557.44
2022-11-06T13:04:12.248Z,100555.69
2022-11-06T13:07:14.160Z,100559.25
2022-11-06T13:09:52.931Z,100546.03
2022-11-06T13:12:28.866Z,100558.34
2022-11-06T13:15:10.971Z,100555.72
2022-11-06T13:17:47.871Z,100559.19
2022-11-06T13:20:27.183Z,100552.09
2022-11-06T13:23:05.707Z,100558.22
2022-11-06T13:25:42.153Z,100554.66
2022-11-06T13:28:29.986Z,100548.44
2022-11-06T13:31:01.732Z,100555.38
2022-11-06T13:33:35.941Z,100551.81
2022-11-06T13:36:07.510Z,100538.56
2022-11-06T13:38:43.358Z,100531.47
2022-11-06T13:41:18.549Z,100533.25
2022-11-06T13:43:53.413Z,100534.13
2022-11-06T13:46:30.069Z,100528.84
2022-11-06T13:49:11.816Z,100523.56
2022-11-06T13:51:51.341Z,100528.78
2022-11-06T13:54:33.920Z,100532.31
2022-11-06T13:57:45.246Z,100515.59
2022-11-06T14:00:40.069Z,100504.94
2022-11-06T14:03:51.370Z,100504.09
2022-11-06T14:06:24.297Z,100515.50
2022-11-06T14:08:56.762Z,100508.50
2022-11-06T14:11:33.870Z,100513.78
2022-11-06T14:14:05.775Z,100510.22
2022-11-06T14:16:37.496Z,100511.13
2022-11-06T14:19:13.302Z,100505.88
2022-11-06T14:21:49.328Z,100514.63
2022-11-06T14:24:41.198Z,100518.19
2022-11-06T14:27:51.654Z,100510.31
2022-11-06T14:31:11.073Z,100503.22
2022-11-06T14:34:01.579Z,100509.34
2022-11-06T14:36:39.121Z,100515.50
2022-11-06T14:39:16.100Z,100504.06
2022-11-06T14:41:57.843Z,100504.94
2022-11-06T14:44:47.314Z,100506.75
2022-11-06T14:47:30.840Z,100499.69
2022-11-06T14:50:04.943Z,100497.91
2022-11-06T14:52:45.374Z,100503.13
2022-11-06T14:55:31.621Z,100496.06
2022-11-06T14:58:15.383Z,100489.84
2022-11-06T15:00:55.186Z,100495.16
2022-11-06T15:03:32.339Z,100495.94
2022-11-06T15:06:05.458Z,100497.69
2022-11-06T15:09:03.673Z,100494.97
2022-11-06T15:11:52.466Z,100487.88
2022-11-06T15:14:57.738Z,100493.09
2022-11-06T15:17:32.387Z,100485.97
2022-11-06T15:20:17.139Z,100490.31
2022-11-06T15:22:53.133Z,100479.66
2022-11-06T15:25:25.551Z,100488.38
2022-11-06T15:28:07.791Z,100489.16
2022-11-06T15:30:46.057Z,100487.41
2022-11-06T15:33:23.978Z,100488.22
2022-11-06T15:35:54.431Z,100484.66
2022-11-06T15:38:27.427Z,100482.84
2022-11-06T15:40:58.465Z,100481.97
2022-11-06T15:43:32.781Z,100475.72
2022-11-06T15:46:17.327Z,100475.66
2022-11-06T15:48:50.228Z,100468.56
2022-11-06T15:51:25.915Z,100462.38
2022-11-06T15:53:56.371Z,100470.25
2022-11-06T15:56:32.238Z,100463.19
2022-11-06T15:59:13.819Z,100461.34
2022-11-06T16:01:44.867Z,100457.72
2022-11-06T16:04:22.066Z,100449.81
2022-11-06T16:06:52.951Z,100443.59
2022-11-06T16:09:26.641Z,100442.72
2022-11-06T16:11:57.168Z,100432.19
2022-11-06T16:14:28.659Z,100426.00
2022-11-06T16:16:59.912Z,100421.53
2022-11-06T16:19:36.560Z,100419.72
2022-11-06T16:22:10.003Z,100411.81
2022-11-06T16:24:46.044Z,100410.00
2022-11-06T16:27:17.156Z,100404.69
2022-11-06T16:29:51.688Z,100400.25
2022-11-06T16:32:24.841Z,100394.03
2022-11-06T16:34:57.220Z,100391.41
2022-11-06T16:37:41.724Z,100383.44
2022-11-06T16:40:47.157Z,100379.88
2022-11-06T16:43:18.375Z,100382.41
2022-11-06T16:46:05.578Z,100373.63
2022-11-06T16:48:38.437Z,100379.75
2022-11-06T16:51:16.072Z,100369.22
2022-11-06T16:53:56.694Z,100370.03
2022-11-06T16:56:28.819Z,100377.84
2022-11-06T16:59:01.706Z,100371.69
2022-11-06T17:01:39.250Z,100368.94
2022-11-06T17:04:09.675Z,100368.88
2022-11-06T17:06:42.161Z,100367.91
2022-11-06T17:09:32.001Z,100360.00
2022-11-06T17:12:03.010Z,100362.50
2022-11-06T17:14:34.450Z,100357.19
2022-11-06T17:17:05.720Z,100366.66
2022-11-06T17:19:35.417Z,100358.59
2022-11-06T17:22:12.419Z,100356.66
2022-11-06T17:24:42.172Z,100353.91
2022-11-06T17:27:11.980Z,100354.59
2022-11-06T17:29:41.654Z,100351.78
2022-11-06T17:32:11.371Z,100348.09
2022-11-06T17:34:41.059Z,100352.28
2022-11-06T17:37:15.836Z,100339.06
2022-11-06T17:39:45.550Z,100346.84
2022-11-06T17:42:15.237Z,100339.69
2022-11-06T17:44:44.918Z,100334.38
2022-11-06T17:47:14.587Z,100334.38
2022-11-06T17:49:44.318Z,100332.53
2022-11-06T17:52:16.620Z,100322.78
2022-11-06T17:54:46.370Z,100327.03
2022-11-06T17:57:22.830Z,100326.91
2022-11-06T17:59:53.705Z,100318.00
2022-11-06T18:02:47.603Z,100310.84
2022-11-06T18:05:13.467Z,100312.53
2022-11-06T18:07:45.762Z,100313.31
2022-11-06T18:10:15.480Z,100300.09
2022-11-06T18:12:45.150Z,100298.28
2022-11-06T18:15:15.014Z,100301.59
2022-11-06T18:17:44.724Z,100296.19
2022-11-06T18:20:14.772Z,100286.44
2022-11-06T18:22:47.086Z,100285.50
2022-11-06T18:25:16.834Z,100270.53
2022-11-06T18:27:46.637Z,100272.16
2022-11-06T18:30:16.874Z,100271.28
2022-11-06T18:32:46.608Z,100271.22
2022-11-06T18:35:16.551Z,100268.50
2022-11-06T18:37:48.904Z,100253.63
2022-11-06T18:40:18.861Z,100257.94
2022-11-06T18:42:48.576Z,100258.84
2022-11-06T18:45:18.335Z,100256.13
2022-11-06T18:47:48.020Z,100254.25
2022-11-06T18:50:17.891Z,100254.25
2022-11-06T18:52:57.850Z,100247.22
2022-11-06T18:55:28.257Z,100245.47
2022-11-06T18:57:58.217Z,100252.41
2022-11-06T19:00:28.555Z,100248.84
2022-11-06T19:02:58.327Z,100241.81
2022-11-06T19:05:28.088Z,100246.22
2022-11-06T19:08:00.780Z,100237.41
2022-11-06T19:10:31.395Z,100250.53
2022-11-06T19:13:01.131Z,100248.78
2022-11-06T19:15:30.843Z,100244.41
2022-11-06T19:18:01.240Z,100245.25
2022-11-06T19:20:31.123Z,100239.09
2022-11-06T19:23:03.489Z,100237.41
2022-11-06T19:25:33.168Z,100229.53
2022-11-06T19:28:03.154Z,100237.41
2022-11-06T19:30:33.441Z,100232.16
2022-11-06T19:33:03.175Z,100237.41
2022-11-06T19:35:33.045Z,100239.28
2022-11-06T19:38:05.501Z,100241.03
2022-11-06T19:40:35.759Z,100236.66
2022-11-06T19:43:07.136Z,100231.31
2022-11-06T19:45:37.733Z,100232.16
2022-11-06T19:48:08.425Z,100225.16
2022-11-06T19:50:58.695Z,100226.88
2022-11-06T19:53:31.363Z,100222.47
2022-11-06T19:56:01.746Z,100223.34
2022-11-06T19:58:31.597Z,100227.69
2022-11-06T20:01:01.371Z,100232.06
2022-11-06T20:03:31.120Z,100225.09
2022-11-06T20:06:06.442Z,100219.84
2022-11-06T20:08:40.156Z,100214.63
2022-11-06T20:11:12.437Z,100212.03
2022-11-06T20:13:42.506Z,100206.78
2022-11-06T20:16:15.190Z,100209.47
2022-11-06T20:18:45.161Z,100207.72
2022-11-06T20:21:15.372Z,100207.78
2022-11-06T20:23:47.835Z,100203.47
2022-11-06T20:26:18.492Z,100206.09
2022-11-06T20:28:48.686Z,100204.28
2022-11-06T20:31:20.147Z,100210.47
2022-11-06T20:33:50.379Z,100206.97
2022-11-06T20:36:44.322Z,100196.47
2022-11-06T20:39:17.083Z,100209.63
2022-11-06T20:41:46.911Z,100198.28
2022-11-06T20:44:18.063Z,100207.03
2022-11-06T20:46:48.103Z,100205.34
2022-11-06T20:49:18.460Z,100201.84
2022-11-06T20:52:12.722Z,100199.22
2022-11-06T20:54:46.339Z,100196.63
2022-11-06T20:57:17.276Z,100196.72
2022-11-06T20:59:46.976Z,100198.47
2022-11-06T21:02:16.806Z,100188.94
2022-11-06T21:04:46.914Z,100196.88
2022-11-06T21:07:16.726Z,100198.63
2022-11-06T21:09:49.160Z,100193.47
2022-11-06T21:12:19.171Z,100201.38
2022-11-06T21:14:48.895Z,100204.00
2022-11-06T21:17:18.602Z,100190.94
2022-11-06T21:19:48.348Z,100200.56
2022-11-06T21:22:18.044Z,100204.13
2022-11-06T21:24:50.352Z,100196.31
2022-11-06T21:27:20.201Z,100208.56
2022-11-06T21:29:49.894Z,100191.06
2022-11-06T21:32:19.984Z,100199.84
2022-11-06T21:34:52.526Z,100203.44
2022-11-06T21:37:33.007Z,100198.22
2022-11-06T21:40:05.828Z,100187.69
2022-11-06T21:42:35.602Z,100188.63
2022-11-06T21:45:05.383Z,100201.00
2022-11-06T21:47:35.093Z,100188.75
2022-11-06T21:50:04.925Z,100192.25
2022-11-06T21:52:47.101Z,100191.47
2022-11-06T21:55:33.021Z,100185.38
2022-11-06T21:58:02.966Z,100188.88
2022-11-06T22:00:33.094Z,100197.69
2022-11-06T22:03:47.943Z,100196.00
2022-11-06T22:06:20.956Z,100186.44
2022-11-06T22:08:52.119Z,100193.53
2022-11-06T22:11:26.898Z,100187.47
2022-11-06T22:13:58.519Z,100184.88
2022-11-06T22:16:30.315Z,100180.53
2022-11-06T22:19:01.337Z,100179.78
2022-11-06T22:21:32.618Z,100174.56
2022-11-06T22:24:02.532Z,100187.78
2022-11-06T22:26:37.925Z,100188.72
2022-11-06T22:29:10.547Z,100176.50
2022-11-06T22:31:40.293Z,100190.63
2022-11-06T22:34:11.771Z,100192.38
2022-11-06T22:36:42.163Z,100189.88
2022-11-06T22:39:14.123Z,100192.56
2022-11-06T22:41:46.451Z,100192.63
2022-11-06T22:44:16.309Z,100196.19
2022-11-06T22:46:47.407Z,100206.81
2022-11-06T22:49:17.165Z,100205.13
2022-11-06T22:51:48.016Z,100198.13
2022-11-06T22:54:17.782Z,100206.13
2022-11-06T22:56:50.084Z,100201.78
2022-11-06T22:59:20.863Z,100199.16
2022-11-06T23:01:50.604Z,100214.13
2022-11-06T23:04:20.319Z,100207.13
2022-11-06T23:06:50.017Z,100211.53
2022-11-06T23:09:19.710Z,100211.56
2022-11-06T23:11:52.127Z,100216.00
2022-11-06T23:14:21.823Z,100214.28
2022-11-06T23:17:01.145Z,100221.34
2022-11-06T23:19:32.759Z,100216.09
2022-11-06T23:22:15.147Z,100220.56
2022-11-06T23:24:45.107Z,100225.81
2022-11-06T23:27:17.484Z,100222.34
2022-11-06T23:29:47.243Z,100226.81
2022-11-06T23:32:16.924Z,100221.59
2022-11-06T23:34:46.598Z,100231.28
2022-11-06T23:37:16.275Z,100225.19
2022-11-06T23:39:45.983Z,100219.06
2022-11-06T23:42:20.977Z,100223.50
2022-11-06T23:45:03.359Z,100232.28
2022-11-06T23:47:33.543Z,100230.47
2022-11-06T23:50:03.561Z,100235.69
2022-11-06T23:52:34.242Z,100250.59
2022-11-06T23:55:04.071Z,100239.19
2022-11-06T23:57:36.430Z,100250.63
